sensor_id;sensor_type;location;lat;lon;timestamp;temperature;humidity
18365;DHT22;9309;52.126;11.616;2022-12-18T00:02:11;-6.30;93.60
18365;DHT22;9309;52.126;11.616;2022-12-18T00:04:37;-6.30;93.40
18365;DHT22;9309;52.126;11.616;2022-12-18T00:07:06;-6.20;93.40
18365;DHT22;9309;52.126;11.616;2022-12-18T00:09:32;-6.10;92.70
18365;DHT22;9309;52.126;11.616;2022-12-18T00:11:59;-6.10;92.20
18365;DHT22;9309;52.126;11.616;2022-12-18T00:14:26;-6.20;91.90
18365;DHT22;9309;52.126;11.616;2022-12-18T00:16:53;-6.30;92.60
18365;DHT22;9309;52.126;11.616;2022-12-18T00:19:19;-6.30;93.50
18365;DHT22;9309;52.126;11.616;2022-12-18T00:21:46;-6.20;92.70
18365;DHT22;9309;52.126;11.616;2022-12-18T00:24:14;-6.40;92.80
18365;DHT22;9309;52.126;11.616;2022-12-18T00:26:42;-6.50;93.00
18365;DHT22;9309;52.126;11.616;2022-12-18T00:29:11;-6.60;93.50
18365;DHT22;9309;52.126;11.616;2022-12-18T00:31:40;-6.60;93.90
18365;DHT22;9309;52.126;11.616;2022-12-18T00:34:10;-6.60;93.70
18365;DHT22;9309;52.126;11.616;2022-12-18T00:36:39;-6.50;93.30
18365;DHT22;9309;52.126;11.616;2022-12-18T00:39:06;-6.50;93.20
18365;DHT22;9309;52.126;11.616;2022-12-18T00:41:35;-6.60;93.50
18365;DHT22;9309;52.126;11.616;2022-12-18T00:44:19;-6.60;93.70
18365;DHT22;9309;52.126;11.616;2022-12-18T00:46:47;-6.60;93.50
18365;DHT22;9309;52.126;11.616;2022-12-18T00:49:14;-6.80;93.30
18365;DHT22;9309;52.126;11.616;2022-12-18T00:51:41;-6.80;94.10
18365;DHT22;9309;52.126;11.616;2022-12-18T00:54:08;-6.70;94.00
18365;DHT22;9309;52.126;11.616;2022-12-18T00:56:37;-6.70;93.60
18365;DHT22;9309;52.126;11.616;2022-12-18T00:59:04;-6.80;93.60
18365;DHT22;9309;52.126;11.616;2022-12-18T01:01:31;-6.90;94.20
18365;DHT22;9309;52.126;11.616;2022-12-18T01:04:00;-6.80;94.20
18365;DHT22;9309;52.126;11.616;2022-12-18T01:06:27;-6.70;93.90
18365;DHT22;9309;52.126;11.616;2022-12-18T01:08:55;-6.60;93.90
18365;DHT22;9309;52.126;11.616;2022-12-18T01:11:22;-6.60;93.70
18365;DHT22;9309;52.126;11.616;2022-12-18T01:13:51;-6.60;93.30
18365;DHT22;9309;52.126;11.616;2022-12-18T01:16:21;-6.60;93.40
18365;DHT22;9309;52.126;11.616;2022-12-18T01:18:51;-6.60;93.70
18365;DHT22;9309;52.126;11.616;2022-12-18T01:21:19;-6.70;93.40
18365;DHT22;9309;52.126;11.616;2022-12-18T01:23:50;-6.70;93.60
18365;DHT22;9309;52.126;11.616;2022-12-18T01:26:17;-6.70;93.30
18365;DHT22;9309;52.126;11.616;2022-12-18T01:28:44;-6.60;93.00
18365;DHT22;9309;52.126;11.616;2022-12-18T01:31:17;-6.50;92.60
18365;DHT22;9309;52.126;11.616;2022-12-18T01:33:46;-6.50;92.30
18365;DHT22;9309;52.126;11.616;2022-12-18T01:36:17;-6.60;92.20
18365;DHT22;9309;52.126;11.616;2022-12-18T01:38:45;-6.70;92.40
18365;DHT22;9309;52.126;11.616;2022-12-18T01:41:12;-6.80;93.00
18365;DHT22;9309;52.126;11.616;2022-12-18T01:43:49;-6.80;93.30
18365;DHT22;9309;52.126;11.616;2022-12-18T01:46:20;-6.60;93.20
18365;DHT22;9309;52.126;11.616;2022-12-18T01:48:49;-6.70;92.60
18365;DHT22;9309;52.126;11.616;2022-12-18T01:51:17;-6.60;93.50
18365;DHT22;9309;52.126;11.616;2022-12-18T01:53:44;-6.80;93.20
18365;DHT22;9309;52.126;11.616;2022-12-18T01:56:14;-6.60;93.50
18365;DHT22;9309;52.126;11.616;2022-12-18T01:58:48;-6.70;93.00
18365;DHT22;9309;52.126;11.616;2022-12-18T02:01:18;-6.80;93.60
18365;DHT22;9309;52.126;11.616;2022-12-18T02:03:46;-6.80;93.80
18365;DHT22;9309;52.126;11.616;2022-12-18T02:06:16;-6.60;93.60
18365;DHT22;9309;52.126;11.616;2022-12-18T02:08:58;-6.70;93.40
18365;DHT22;9309;52.126;11.616;2022-12-18T02:11:37;-6.50;93.20
18365;DHT22;9309;52.126;11.616;2022-12-18T02:14:15;-6.40;92.40
18365;DHT22;9309;52.126;11.616;2022-12-18T02:16:49;-6.40;92.10
18365;DHT22;9309;52.126;11.616;2022-12-18T02:19:39;-6.40;92.20
18365;DHT22;9309;52.126;11.616;2022-12-18T02:22:20;-6.50;92.10
18365;DHT22;9309;52.126;11.616;2022-12-18T02:25:00;-6.60;92.10
18365;DHT22;9309;52.126;11.616;2022-12-18T02:27:32;-6.50;92.10
18365;DHT22;9309;52.126;11.616;2022-12-18T02:30:01;-6.60;91.80
18365;DHT22;9309;52.126;11.616;2022-12-18T02:32:31;-6.70;91.60
18365;DHT22;9309;52.126;11.616;2022-12-18T02:35:01;-6.80;92.10
18365;DHT22;9309;52.126;11.616;2022-12-18T02:37:30;-7.00;92.50
18365;DHT22;9309;52.126;11.616;2022-12-18T02:40:03;-7.00;93.20
18365;DHT22;9309;52.126;11.616;2022-12-18T02:42:34;-7.00;93.40
18365;DHT22;9309;52.126;11.616;2022-12-18T02:45:03;-6.80;94.00
18365;DHT22;9309;52.126;11.616;2022-12-18T02:47:33;-6.70;92.70
18365;DHT22;9309;52.126;11.616;2022-12-18T02:50:08;-6.70;92.80
18365;DHT22;9309;52.126;11.616;2022-12-18T02:52:45;-6.70;93.20
18365;DHT22;9309;52.126;11.616;2022-12-18T02:55:27;-6.70;93.00
18365;DHT22;9309;52.126;11.616;2022-12-18T02:58:05;-6.60;92.80
18365;DHT22;9309;52.126;11.616;2022-12-18T03:00:39;-6.60;92.00
18365;DHT22;9309;52.126;11.616;2022-12-18T03:03:12;-6.70;92.10
18365;DHT22;9309;52.126;11.616;2022-12-18T03:05:44;-6.70;92.80
18365;DHT22;9309;52.126;11.616;2022-12-18T03:08:17;-6.70;92.70
18365;DHT22;9309;52.126;11.616;2022-12-18T03:10:50;-6.80;93.30
18365;DHT22;9309;52.126;11.616;2022-12-18T03:13:23;-6.80;92.70
18365;DHT22;9309;52.126;11.616;2022-12-18T03:15:57;-6.80;93.10
18365;DHT22;9309;52.126;11.616;2022-12-18T03:18:29;-6.80;93.00
18365;DHT22;9309;52.126;11.616;2022-12-18T03:20:59;-6.90;93.30
18365;DHT22;9309;52.126;11.616;2022-12-18T03:23:34;-6.90;93.50
18365;DHT22;9309;52.126;11.616;2022-12-18T03:26:07;-6.80;93.70
18365;DHT22;9309;52.126;11.616;2022-12-18T03:28:48;-6.90;94.00
18365;DHT22;9309;52.126;11.616;2022-12-18T03:31:19;-6.80;93.70
18365;DHT22;9309;52.126;11.616;2022-12-18T03:33:52;-6.40;93.60
18365;DHT22;9309;52.126;11.616;2022-12-18T03:36:24;-6.50;92.30
18365;DHT22;9309;52.126;11.616;2022-12-18T03:38:51;-6.60;92.80
18365;DHT22;9309;52.126;11.616;2022-12-18T03:41:21;-6.50;92.80
18365;DHT22;9309;52.126;11.616;2022-12-18T03:44:14;-6.60;92.60
18365;DHT22;9309;52.126;11.616;2022-12-18T03:46:51;-6.60;92.20
18365;DHT22;9309;52.126;11.616;2022-12-18T03:49:25;-6.60;93.10
18365;DHT22;9309;52.126;11.616;2022-12-18T03:52:00;-6.60;92.80
18365;DHT22;9309;52.126;11.616;2022-12-18T03:54:29;-6.60;93.10
18365;DHT22;9309;52.126;11.616;2022-12-18T03:57:07;-6.70;93.00
18365;DHT22;9309;52.126;11.616;2022-12-18T03:59:38;-6.70;93.00
18365;DHT22;9309;52.126;11.616;2022-12-18T04:02:07;-6.70;92.70
18365;DHT22;9309;52.126;11.616;2022-12-18T04:04:36;-6.80;92.50
18365;DHT22;9309;52.126;11.616;2022-12-18T04:07:04;-7.00;93.20
18365;DHT22;9309;52.126;11.616;2022-12-18T04:09:34;-7.00;93.90
18365;DHT22;9309;52.126;11.616;2022-12-18T04:12:04;-7.10;94.00
18365;DHT22;9309;52.126;11.616;2022-12-18T04:14:31;-7.20;94.30
18365;DHT22;9309;52.126;11.616;2022-12-18T04:17:03;-7.00;94.10
18365;DHT22;9309;52.126;11.616;2022-12-18T04:19:32;-7.10;94.00
18365;DHT22;9309;52.126;11.616;2022-12-18T04:22:00;-7.10;93.60
18365;DHT22;9309;52.126;11.616;2022-12-18T04:24:32;-7.10;93.70
18365;DHT22;9309;52.126;11.616;2022-12-18T04:27:07;-7.10;93.40
18365;DHT22;9309;52.126;11.616;2022-12-18T04:29:40;-7.20;93.10
18365;DHT22;9309;52.126;11.616;2022-12-18T04:32:09;-7.30;93.30
18365;DHT22;9309;52.126;11.616;2022-12-18T04:34:37;-7.40;93.80
18365;DHT22;9309;52.126;11.616;2022-12-18T04:37:04;-7.40;94.10
18365;DHT22;9309;52.126;11.616;2022-12-18T04:39:31;-7.40;94.30
18365;DHT22;9309;52.126;11.616;2022-12-18T04:42:04;-7.30;94.40
18365;DHT22;9309;52.126;11.616;2022-12-18T04:44:31;-7.20;94.10
18365;DHT22;9309;52.126;11.616;2022-12-18T04:46:57;-7.20;93.50
18365;DHT22;9309;52.126;11.616;2022-12-18T04:49:26;-7.10;93.70
18365;DHT22;9309;52.126;11.616;2022-12-18T04:51:53;-7.20;93.90
18365;DHT22;9309;52.126;11.616;2022-12-18T04:54:20;-6.90;93.30
18365;DHT22;9309;52.126;11.616;2022-12-18T04:56:47;-7.00;92.60
18365;DHT22;9309;52.126;11.616;2022-12-18T04:59:13;-7.10;93.30
18365;DHT22;9309;52.126;11.616;2022-12-18T05:01:40;-7.20;94.20
18365;DHT22;9309;52.126;11.616;2022-12-18T05:04:07;-7.30;94.80
18365;DHT22;9309;52.126;11.616;2022-12-18T05:06:35;-7.10;95.50
18365;DHT22;9309;52.126;11.616;2022-12-18T05:09:02;-7.10;94.70
18365;DHT22;9309;52.126;11.616;2022-12-18T05:11:29;-7.10;94.60
18365;DHT22;9309;52.126;11.616;2022-12-18T05:13:55;-7.00;94.30
18365;DHT22;9309;52.126;11.616;2022-12-18T05:16:22;-7.10;93.80
18365;DHT22;9309;52.126;11.616;2022-12-18T05:18:49;-7.20;94.20
18365;DHT22;9309;52.126;11.616;2022-12-18T05:21:16;-7.30;94.20
18365;DHT22;9309;52.126;11.616;2022-12-18T05:23:44;-7.30;94.70
18365;DHT22;9309;52.126;11.616;2022-12-18T05:26:15;-7.20;94.70
18365;DHT22;9309;52.126;11.616;2022-12-18T05:28:42;-7.30;94.30
18365;DHT22;9309;52.126;11.616;2022-12-18T05:31:09;-7.30;94.50
18365;DHT22;9309;52.126;11.616;2022-12-18T05:33:36;-7.30;94.40
18365;DHT22;9309;52.126;11.616;2022-12-18T05:36:05;-7.20;94.50
18365;DHT22;9309;52.126;11.616;2022-12-18T05:38:35;-7.10;94.20
18365;DHT22;9309;52.126;11.616;2022-12-18T05:41:04;-7.30;94.20
18365;DHT22;9309;52.126;11.616;2022-12-18T05:43:31;-7.40;94.90
18365;DHT22;9309;52.126;11.616;2022-12-18T05:45:58;-7.30;95.40
18365;DHT22;9309;52.126;11.616;2022-12-18T05:48:29;-7.30;95.50
18365;DHT22;9309;52.126;11.616;2022-12-18T05:50:56;-7.30;95.50
18365;DHT22;9309;52.126;11.616;2022-12-18T05:53:29;-7.30;95.30
18365;DHT22;9309;52.126;11.616;2022-12-18T05:56:00;-7.10;95.10
18365;DHT22;9309;52.126;11.616;2022-12-18T05:58:29;-7.10;94.30
18365;DHT22;9309;52.126;11.616;2022-12-18T06:00:56;-7.00;94.30
18365;DHT22;9309;52.126;11.616;2022-12-18T06:03:23;-7.10;94.40
18365;DHT22;9309;52.126;11.616;2022-12-18T06:05:50;-7.00;93.80
18365;DHT22;9309;52.126;11.616;2022-12-18T06:08:17;-6.80;93.70
18365;DHT22;9309;52.126;11.616;2022-12-18T06:10:50;-7.00;92.80
18365;DHT22;9309;52.126;11.616;2022-12-18T06:13:17;-7.10;93.60
18365;DHT22;9309;52.126;11.616;2022-12-18T06:15:45;-7.00;94.10
18365;DHT22;9309;52.126;11.616;2022-12-18T06:18:12;-7.00;93.70
18365;DHT22;9309;52.126;11.616;2022-12-18T06:20:39;-7.10;93.50
18365;DHT22;9309;52.126;11.616;2022-12-18T06:23:07;-7.10;93.40
18365;DHT22;9309;52.126;11.616;2022-12-18T06:25:39;-7.10;93.10
18365;DHT22;9309;52.126;11.616;2022-12-18T06:28:06;-7.20;92.70
18365;DHT22;9309;52.126;11.616;2022-12-18T06:30:32;-7.30;93.00
18365;DHT22;9309;52.126;11.616;2022-12-18T06:33:00;-7.40;93.30
18365;DHT22;9309;52.126;11.616;2022-12-18T06:35:27;-7.40;93.20
18365;DHT22;9309;52.126;11.616;2022-12-18T06:37:54;-7.30;93.10
18365;DHT22;9309;52.126;11.616;2022-12-18T06:40:21;-7.40;92.50
18365;DHT22;9309;52.126;11.616;2022-12-18T06:42:48;-7.40;92.40
18365;DHT22;9309;52.126;11.616;2022-12-18T06:45:16;-7.50;92.70
18365;DHT22;9309;52.126;11.616;2022-12-18T06:47:43;-7.50;93.30
18365;DHT22;9309;52.126;11.616;2022-12-18T06:50:12;-7.60;93.40
18365;DHT22;9309;52.126;11.616;2022-12-18T06:52:38;-7.70;93.60
18365;DHT22;9309;52.126;11.616;2022-12-18T06:55:10;-7.60;94.00
18365;DHT22;9309;52.126;11.616;2022-12-18T06:57:37;-7.70;93.40
18365;DHT22;9309;52.126;11.616;2022-12-18T07:00:06;-7.70;94.00
18365;DHT22;9309;52.126;11.616;2022-12-18T07:02:33;-7.70;94.40
18365;DHT22;9309;52.126;11.616;2022-12-18T07:05:00;-7.60;94.80
18365;DHT22;9309;52.126;11.616;2022-12-18T07:07:29;-7.60;94.20
18365;DHT22;9309;52.126;11.616;2022-12-18T07:09:55;-7.60;94.40
18365;DHT22;9309;52.126;11.616;2022-12-18T07:12:22;-7.50;94.50
18365;DHT22;9309;52.126;11.616;2022-12-18T07:14:49;-7.50;94.60
18365;DHT22;9309;52.126;11.616;2022-12-18T07:17:16;-7.50;93.90
18365;DHT22;9309;52.126;11.616;2022-12-18T07:19:42;-7.60;94.40
18365;DHT22;9309;52.126;11.616;2022-12-18T07:22:09;-7.50;94.40
18365;DHT22;9309;52.126;11.616;2022-12-18T07:24:37;-7.50;94.50
18365;DHT22;9309;52.126;11.616;2022-12-18T07:27:04;-7.50;94.20
18365;DHT22;9309;52.126;11.616;2022-12-18T07:29:31;-7.50;93.90
18365;DHT22;9309;52.126;11.616;2022-12-18T07:31:57;-7.50;93.80
18365;DHT22;9309;52.126;11.616;2022-12-18T07:34:24;-7.50;93.30
18365;DHT22;9309;52.126;11.616;2022-12-18T07:36:51;-7.50;93.10
18365;DHT22;9309;52.126;11.616;2022-12-18T07:39:18;-7.50;93.10
18365;DHT22;9309;52.126;11.616;2022-12-18T07:41:46;-7.50;92.90
18365;DHT22;9309;52.126;11.616;2022-12-18T07:44:32;-7.60;92.90
18365;DHT22;9309;52.126;11.616;2022-12-18T07:46:59;-7.70;93.30
18365;DHT22;9309;52.126;11.616;2022-12-18T07:49:26;-7.70;93.30
18365;DHT22;9309;52.126;11.616;2022-12-18T07:51:54;-7.60;93.30
18365;DHT22;9309;52.126;11.616;2022-12-18T07:54:21;-7.60;93.00
18365;DHT22;9309;52.126;11.616;2022-12-18T07:56:50;-7.70;92.50
18365;DHT22;9309;52.126;11.616;2022-12-18T07:59:17;-7.60;92.90
18365;DHT22;9309;52.126;11.616;2022-12-18T08:01:44;-7.60;92.10
18365;DHT22;9309;52.126;11.616;2022-12-18T08:04:11;-7.60;91.90
18365;DHT22;9309;52.126;11.616;2022-12-18T08:06:37;-7.60;91.70
18365;DHT22;9309;52.126;11.616;2022-12-18T08:09:04;-7.60;92.00
18365;DHT22;9309;52.126;11.616;2022-12-18T08:11:31;-7.50;91.40
18365;DHT22;9309;52.126;11.616;2022-12-18T08:13:59;-7.50;91.00
18365;DHT22;9309;52.126;11.616;2022-12-18T08:16:26;-7.60;91.00
18365;DHT22;9309;52.126;11.616;2022-12-18T08:18:54;-7.60;90.40
18365;DHT22;9309;52.126;11.616;2022-12-18T08:21:22;-7.60;90.60
18365;DHT22;9309;52.126;11.616;2022-12-18T08:23:50;-7.60;90.00
18365;DHT22;9309;52.126;11.616;2022-12-18T08:26:17;-7.60;90.10
18365;DHT22;9309;52.126;11.616;2022-12-18T08:28:44;-7.80;90.20
18365;DHT22;9309;52.126;11.616;2022-12-18T08:31:12;-7.80;90.60
18365;DHT22;9309;52.126;11.616;2022-12-18T08:33:40;-7.80;90.30
18365;DHT22;9309;52.126;11.616;2022-12-18T08:36:08;-7.80;90.30
18365;DHT22;9309;52.126;11.616;2022-12-18T08:38:36;-7.70;90.10
18365;DHT22;9309;52.126;11.616;2022-12-18T08:41:04;-7.80;90.00
18365;DHT22;9309;52.126;11.616;2022-12-18T08:43:31;-7.70;90.30
18365;DHT22;9309;52.126;11.616;2022-12-18T08:46:18;-7.60;90.70
18365;DHT22;9309;52.126;11.616;2022-12-18T08:48:45;-7.50;89.50
18365;DHT22;9309;52.126;11.616;2022-12-18T08:51:12;-7.30;89.30
18365;DHT22;9309;52.126;11.616;2022-12-18T08:53:39;-7.10;88.30
18365;DHT22;9309;52.126;11.616;2022-12-18T08:56:06;-6.90;86.50
18365;DHT22;9309;52.126;11.616;2022-12-18T08:58:33;-6.50;85.40
18365;DHT22;9309;52.126;11.616;2022-12-18T09:01:00;-6.40;84.70
18365;DHT22;9309;52.126;11.616;2022-12-18T09:03:29;-6.50;84.50
18365;DHT22;9309;52.126;11.616;2022-12-18T09:05:56;-6.50;84.10
18365;DHT22;9309;52.126;11.616;2022-12-18T09:08:23;-7.00;85.70
18365;DHT22;9309;52.126;11.616;2022-12-18T09:10:50;-7.20;86.80
18365;DHT22;9309;52.126;11.616;2022-12-18T09:13:17;-7.30;88.30
18365;DHT22;9309;52.126;11.616;2022-12-18T09:15:45;-7.00;88.00
18365;DHT22;9309;52.126;11.616;2022-12-18T09:18:13;-7.10;86.20
18365;DHT22;9309;52.126;11.616;2022-12-18T09:20:42;-7.00;86.80
18365;DHT22;9309;52.126;11.616;2022-12-18T09:23:10;-7.00;86.80
18365;DHT22;9309;52.126;11.616;2022-12-18T09:25:37;-6.80;87.00
18365;DHT22;9309;52.126;11.616;2022-12-18T09:28:06;-6.60;85.40
18365;DHT22;9309;52.126;11.616;2022-12-18T09:30:33;-6.60;85.30
18365;DHT22;9309;52.126;11.616;2022-12-18T09:33:00;-6.50;85.10
18365;DHT22;9309;52.126;11.616;2022-12-18T09:35:27;-6.00;84.20
18365;DHT22;9309;52.126;11.616;2022-12-18T09:37:55;-5.60;80.50
18365;DHT22;9309;52.126;11.616;2022-12-18T09:40:24;-5.70;80.10
18365;DHT22;9309;52.126;11.616;2022-12-18T09:42:56;-5.70;80.30
18365;DHT22;9309;52.126;11.616;2022-12-18T09:45:24;-6.00;80.70
18365;DHT22;9309;52.126;11.616;2022-12-18T09:47:52;-6.10;82.90
18365;DHT22;9309;52.126;11.616;2022-12-18T09:50:24;-5.80;81.50
18365;DHT22;9309;52.126;11.616;2022-12-18T09:52:59;-5.90;81.10
18365;DHT22;9309;52.126;11.616;2022-12-18T09:55:30;-6.00;81.90
18365;DHT22;9309;52.126;11.616;2022-12-18T09:58:02;-6.20;82.90
18365;DHT22;9309;52.126;11.616;2022-12-18T10:00:31;-6.00;83.50
18365;DHT22;9309;52.126;11.616;2022-12-18T10:03:01;-5.40;81.40
18365;DHT22;9309;52.126;11.616;2022-12-18T10:05:33;-5.00;79.80
18365;DHT22;9309;52.126;11.616;2022-12-18T10:08:07;-5.10;78.60
18365;DHT22;9309;52.126;11.616;2022-12-18T10:10:41;-4.50;76.90
18365;DHT22;9309;52.126;11.616;2022-12-18T10:13:18;-4.30;75.30
18365;DHT22;9309;52.126;11.616;2022-12-18T10:15:54;-3.70;74.10
18365;DHT22;9309;52.126;11.616;2022-12-18T10:18:38;-3.20;71.50
18365;DHT22;9309;52.126;11.616;2022-12-18T10:21:11;-1.80;66.60
18365;DHT22;9309;52.126;11.616;2022-12-18T10:23:46;-2.10;65.00
18365;DHT22;9309;52.126;11.616;2022-12-18T10:26:15;-2.10;66.60
18365;DHT22;9309;52.126;11.616;2022-12-18T10:28:43;-2.50;65.50
18365;DHT22;9309;52.126;11.616;2022-12-18T10:31:15;-4.10;71.50
18365;DHT22;9309;52.126;11.616;2022-12-18T10:33:43;-5.00;76.80
18365;DHT22;9309;52.126;11.616;2022-12-18T10:36:10;-5.60;80.00
18365;DHT22;9309;52.126;11.616;2022-12-18T10:38:38;-5.90;82.80
18365;DHT22;9309;52.126;11.616;2022-12-18T10:41:22;-6.00;83.90
18365;DHT22;9309;52.126;11.616;2022-12-18T10:44:11;-6.00;84.60
18365;DHT22;9309;52.126;11.616;2022-12-18T10:46:38;-6.00;85.20
18365;DHT22;9309;52.126;11.616;2022-12-18T10:49:17;-5.90;85.70
18365;DHT22;9309;52.126;11.616;2022-12-18T10:51:44;-5.60;85.20
18365;DHT22;9309;52.126;11.616;2022-12-18T10:54:14;-5.40;83.70
18365;DHT22;9309;52.126;11.616;2022-12-18T10:56:43;-5.80;84.10
18365;DHT22;9309;52.126;11.616;2022-12-18T10:59:12;-5.90;85.90
18365;DHT22;9309;52.126;11.616;2022-12-18T11:01:48;-5.80;86.10
18365;DHT22;9309;52.126;11.616;2022-12-18T11:04:18;-5.80;86.00
18365;DHT22;9309;52.126;11.616;2022-12-18T11:06:57;-5.60;86.20
18365;DHT22;9309;52.126;11.616;2022-12-18T11:09:25;-5.70;85.40
18365;DHT22;9309;52.126;11.616;2022-12-18T11:11:56;-5.70;85.60
18365;DHT22;9309;52.126;11.616;2022-12-18T11:14:25;-5.70;85.60
18365;DHT22;9309;52.126;11.616;2022-12-18T11:16:53;-5.60;85.90
18365;DHT22;9309;52.126;11.616;2022-12-18T11:19:28;-5.50;86.50
18365;DHT22;9309;52.126;11.616;2022-12-18T11:21:57;-5.60;86.60
18365;DHT22;9309;52.126;11.616;2022-12-18T11:24:29;-5.20;86.50
18365;DHT22;9309;52.126;11.616;2022-12-18T11:26:59;-5.40;86.00
18365;DHT22;9309;52.126;11.616;2022-12-18T11:29:33;-5.20;86.60
18365;DHT22;9309;52.126;11.616;2022-12-18T11:32:31;-5.10;84.50
18365;DHT22;9309;52.126;11.616;2022-12-18T11:35:03;-5.20;85.00
18365;DHT22;9309;52.126;11.616;2022-12-18T11:37:32;-5.10;84.70
18365;DHT22;9309;52.126;11.616;2022-12-18T11:40:02;-5.00;84.10
18365;DHT22;9309;52.126;11.616;2022-12-18T11:42:37;-5.10;84.20
18365;DHT22;9309;52.126;11.616;2022-12-18T11:45:25;-5.30;84.50
18365;DHT22;9309;52.126;11.616;2022-12-18T11:47:57;-5.30;85.60
18365;DHT22;9309;52.126;11.616;2022-12-18T11:50:30;-5.30;85.40
18365;DHT22;9309;52.126;11.616;2022-12-18T11:52:58;-5.20;86.30
18365;DHT22;9309;52.126;11.616;2022-12-18T11:55:31;-5.10;85.80
18365;DHT22;9309;52.126;11.616;2022-12-18T11:58:07;-5.10;84.90
18365;DHT22;9309;52.126;11.616;2022-12-18T12:00:42;-5.00;85.70
18365;DHT22;9309;52.126;11.616;2022-12-18T12:03:24;-4.70;85.60
18365;DHT22;9309;52.126;11.616;2022-12-18T12:06:08;-4.40;82.60
18365;DHT22;9309;52.126;11.616;2022-12-18T12:08:48;-4.60;82.80
18365;DHT22;9309;52.126;11.616;2022-12-18T12:11:24;-4.70;83.40
18365;DHT22;9309;52.126;11.616;2022-12-18T12:14:08;-4.70;84.10
18365;DHT22;9309;52.126;11.616;2022-12-18T12:16:43;-4.90;84.30
18365;DHT22;9309;52.126;11.616;2022-12-18T12:19:23;-5.20;85.30
18365;DHT22;9309;52.126;11.616;2022-12-18T12:21:53;-5.20;86.20
18365;DHT22;9309;52.126;11.616;2022-12-18T12:24:33;-5.20;86.30
18365;DHT22;9309;52.126;11.616;2022-12-18T12:27:09;-5.20;86.80
18365;DHT22;9309;52.126;11.616;2022-12-18T12:29:46;-5.30;87.20
18365;DHT22;9309;52.126;11.616;2022-12-18T12:32:28;-5.10;87.30
18365;DHT22;9309;52.126;11.616;2022-12-18T12:35:08;-5.10;87.10
18365;DHT22;9309;52.126;11.616;2022-12-18T12:37:48;-4.90;86.50
18365;DHT22;9309;52.126;11.616;2022-12-18T12:40:19;-4.90;85.60
18365;DHT22;9309;52.126;11.616;2022-12-18T12:42:52;-5.10;86.50
18365;DHT22;9309;52.126;11.616;2022-12-18T12:45:42;-5.20;86.80
18365;DHT22;9309;52.126;11.616;2022-12-18T12:48:16;-5.30;87.90
18365;DHT22;9309;52.126;11.616;2022-12-18T12:50:45;-5.10;88.10
18365;DHT22;9309;52.126;11.616;2022-12-18T12:53:21;-5.10;87.60
18365;DHT22;9309;52.126;11.616;2022-12-18T12:55:50;-5.00;88.00
18365;DHT22;9309;52.126;11.616;2022-12-18T12:58:22;-4.90;87.10
18365;DHT22;9309;52.126;11.616;2022-12-18T13:01:01;-4.80;86.90
18365;DHT22;9309;52.126;11.616;2022-12-18T13:03:41;-4.80;86.80
18365;DHT22;9309;52.126;11.616;2022-12-18T13:06:15;-4.90;87.40
18365;DHT22;9309;52.126;11.616;2022-12-18T13:08:55;-4.80;87.50
18365;DHT22;9309;52.126;11.616;2022-12-18T13:11:32;-4.70;87.60
18365;DHT22;9309;52.126;11.616;2022-12-18T13:14:28;-4.40;87.00
18365;DHT22;9309;52.126;11.616;2022-12-18T13:20:12;-4.40;85.90
18365;DHT22;9309;52.126;11.616;2022-12-18T13:22:43;-4.60;86.40
18365;DHT22;9309;52.126;11.616;2022-12-18T13:25:27;-4.60;87.40
18365;DHT22;9309;52.126;11.616;2022-12-18T13:28:02;-4.50;87.30
18365;DHT22;9309;52.126;11.616;2022-12-18T13:30:53;-4.60;87.30
18365;DHT22;9309;52.126;11.616;2022-12-18T13:33:48;-4.60;87.60
18365;DHT22;9309;52.126;11.616;2022-12-18T13:36:29;-4.50;87.80
18365;DHT22;9309;52.126;11.616;2022-12-18T13:39:23;-4.60;88.40
18365;DHT22;9309;52.126;11.616;2022-12-18T13:41:52;-4.50;88.30
18365;DHT22;9309;52.126;11.616;2022-12-18T13:44:32;-4.30;87.00
18365;DHT22;9309;52.126;11.616;2022-12-18T13:47:00;-4.60;87.70
18365;DHT22;9309;52.126;11.616;2022-12-18T13:49:35;-4.60;88.10
18365;DHT22;9309;52.126;11.616;2022-12-18T13:52:16;-4.60;88.20
18365;DHT22;9309;52.126;11.616;2022-12-18T13:54:48;-4.70;88.50
18365;DHT22;9309;52.126;11.616;2022-12-18T13:57:29;-4.70;88.40
18365;DHT22;9309;52.126;11.616;2022-12-18T13:59:56;-4.70;88.30
18365;DHT22;9309;52.126;11.616;2022-12-18T14:02:25;-4.70;88.90
18365;DHT22;9309;52.126;11.616;2022-12-18T14:04:52;-4.80;88.60
18365;DHT22;9309;52.126;11.616;2022-12-18T14:07:22;-5.00;89.40
18365;DHT22;9309;52.126;11.616;2022-12-18T14:09:52;-5.00;90.10
18365;DHT22;9309;52.126;11.616;2022-12-18T14:12:22;-5.10;90.40
18365;DHT22;9309;52.126;11.616;2022-12-18T14:15:17;-5.00;89.90
18365;DHT22;9309;52.126;11.616;2022-12-18T14:17:47;-5.00;90.30
18365;DHT22;9309;52.126;11.616;2022-12-18T14:20:14;-5.10;90.10
18365;DHT22;9309;52.126;11.616;2022-12-18T14:22:45;-5.10;90.40
18365;DHT22;9309;52.126;11.616;2022-12-18T14:25:16;-5.20;90.50
18365;DHT22;9309;52.126;11.616;2022-12-18T14:27:45;-5.30;90.70
18365;DHT22;9309;52.126;11.616;2022-12-18T14:30:30;-5.30;91.00
18365;DHT22;9309;52.126;11.616;2022-12-18T14:33:01;-5.30;91.60
18365;DHT22;9309;52.126;11.616;2022-12-18T14:35:28;-5.20;91.20
18365;DHT22;9309;52.126;11.616;2022-12-18T14:38:22;-5.30;91.50
18365;DHT22;9309;52.126;11.616;2022-12-18T14:40:53;-5.20;91.40
18365;DHT22;9309;52.126;11.616;2022-12-18T14:43:20;-5.30;91.40
18365;DHT22;9309;52.126;11.616;2022-12-18T14:45:47;-5.40;91.80
18365;DHT22;9309;52.126;11.616;2022-12-18T14:48:17;-5.40;92.30
18365;DHT22;9309;52.126;11.616;2022-12-18T14:50:45;-5.40;91.80
18365;DHT22;9309;52.126;11.616;2022-12-18T14:53:24;-5.50;92.30
18365;DHT22;9309;52.126;11.616;2022-12-18T14:55:54;-5.50;92.70
18365;DHT22;9309;52.126;11.616;2022-12-18T14:58:22;-5.60;93.00
18365;DHT22;9309;52.126;11.616;2022-12-18T15:00:48;-5.50;93.30
18365;DHT22;9309;52.126;11.616;2022-12-18T15:03:18;-5.50;93.00
18365;DHT22;9309;52.126;11.616;2022-12-18T15:05:46;-5.60;93.30
18365;DHT22;9309;52.126;11.616;2022-12-18T15:08:42;-5.50;93.30
18365;DHT22;9309;52.126;11.616;2022-12-18T15:11:26;-5.60;93.30
18365;DHT22;9309;52.126;11.616;2022-12-18T15:13:53;-5.60;93.40
18365;DHT22;9309;52.126;11.616;2022-12-18T15:16:20;-5.60;93.50
18365;DHT22;9309;52.126;11.616;2022-12-18T15:18:47;-5.60;93.50
18365;DHT22;9309;52.126;11.616;2022-12-18T15:21:18;-5.70;93.70
18365;DHT22;9309;52.126;11.616;2022-12-18T15:23:49;-5.60;93.80
18365;DHT22;9309;52.126;11.616;2022-12-18T15:26:17;-5.70;93.90
18365;DHT22;9309;52.126;11.616;2022-12-18T15:28:46;-5.70;93.90
18365;DHT22;9309;52.126;11.616;2022-12-18T15:31:26;-5.70;94.00
18365;DHT22;9309;52.126;11.616;2022-12-18T15:34:10;-5.70;94.20
18365;DHT22;9309;52.126;11.616;2022-12-18T15:36:37;-5.70;93.90
18365;DHT22;9309;52.126;11.616;2022-12-18T15:39:06;-5.80;94.10
18365;DHT22;9309;52.126;11.616;2022-12-18T15:41:36;-5.70;94.10
18365;DHT22;9309;52.126;11.616;2022-12-18T15:44:14;-5.80;94.20
18365;DHT22;9309;52.126;11.616;2022-12-18T15:46:46;-5.70;93.90
18365;DHT22;9309;52.126;11.616;2022-12-18T15:49:13;-5.70;94.00
18365;DHT22;9309;52.126;11.616;2022-12-18T15:51:40;-5.80;94.10
18365;DHT22;9309;52.126;11.616;2022-12-18T15:54:13;-5.80;94.20
18365;DHT22;9309;52.126;11.616;2022-12-18T15:56:41;-5.80;94.30
18365;DHT22;9309;52.126;11.616;2022-12-18T15:59:26;-5.80;94.50